createdAt,value
2019-01-24T00:00:02.206Z,-0.10
2019-01-24T00:02:34.967Z,0.00
2019-01-24T00:05:07.049Z,-0.10
2019-01-24T00:07:38.253Z,-0.10
2019-01-24T00:10:10.263Z,-0.10
2019-01-24T00:12:41.336Z,-0.10
2019-01-24T00:15:12.567Z,-0.10
2019-01-24T00:17:43.767Z,-0.10
2019-01-24T00:20:16.819Z,-0.10
2019-01-24T00:22:47.923Z,-0.10
2019-01-24T00:25:20.187Z,-0.20
2019-01-24T00:27:51.263Z,-0.10
2019-01-24T00:30:22.417Z,-0.10
2019-01-24T00:32:53.520Z,-0.10
2019-01-24T00:35:24.621Z,-0.10
2019-01-24T00:37:55.717Z,-0.10
2019-01-24T00:40:26.821Z,-0.10
2019-01-24T00:42:57.971Z,-0.20
2019-01-24T00:45:29.144Z,-0.10
2019-01-24T00:48:00.202Z,-0.20
2019-01-24T00:50:31.275Z,-0.10
2019-01-24T00:53:02.395Z,-0.10
2019-01-24T00:55:33.711Z,-0.10
2019-01-24T00:58:04.773Z,0.00
2019-01-24T01:00:35.859Z,-0.10
2019-01-24T01:03:06.951Z,-0.10
2019-01-24T01:05:38.181Z,-0.10
2019-01-24T01:08:28.343Z,-0.10
2019-01-24T01:10:59.437Z,-0.10
2019-01-24T01:13:30.558Z,0.00
2019-01-24T01:16:01.623Z,-0.10
2019-01-24T01:18:32.700Z,-0.10
2019-01-24T01:21:15.672Z,-0.10
2019-01-24T01:23:46.817Z,-0.10
2019-01-24T01:26:17.920Z,-0.10
2019-01-24T01:28:48.989Z,-0.20
2019-01-24T01:31:20.075Z,-0.20
2019-01-24T01:33:51.162Z,-0.10
2019-01-24T01:36:22.256Z,-0.10
2019-01-24T01:38:53.455Z,-0.10
2019-01-24T01:41:24.553Z,-0.10
2019-01-24T01:43:55.671Z,0.00
2019-01-24T01:46:26.787Z,0.00
2019-01-24T01:48:57.973Z,-0.10
2019-01-24T01:51:29.124Z,-0.10
2019-01-24T01:54:00.285Z,-0.10
2019-01-24T01:56:31.792Z,-0.10
2019-01-24T01:59:02.887Z,-0.20
2019-01-24T02:01:34.047Z,-0.20
2019-01-24T02:04:05.385Z,-0.20
2019-01-24T02:06:36.528Z,-0.20
2019-01-24T02:09:10.306Z,-0.30
2019-01-24T02:11:41.387Z,-0.20
2019-01-24T02:14:12.539Z,-0.20
2019-01-24T02:16:43.729Z,-0.20
2019-01-24T02:19:14.812Z,-0.20
2019-01-24T02:21:45.969Z,-0.30
2019-01-24T02:24:17.065Z,-0.30
2019-01-24T02:26:48.231Z,-0.30
2019-01-24T02:29:19.344Z,-0.30
2019-01-24T02:31:50.399Z,-0.30
2019-01-24T02:34:21.561Z,-0.40
2019-01-24T02:36:52.684Z,-0.30
2019-01-24T02:39:23.796Z,-0.30
2019-01-24T02:41:54.917Z,-0.40
2019-01-24T02:44:26.043Z,-0.40
2019-01-24T02:46:57.131Z,-0.50
2019-01-24T02:49:28.275Z,-0.50
2019-01-24T02:51:59.494Z,-0.60
2019-01-24T02:54:30.718Z,-0.60
2019-01-24T02:57:02.052Z,-0.70
2019-01-24T02:59:33.179Z,-0.70
2019-01-24T03:02:04.637Z,-0.80
2019-01-24T03:04:35.839Z,-0.80
2019-01-24T03:07:07.035Z,-0.70
2019-01-24T03:09:38.247Z,-0.80
2019-01-24T03:12:10.527Z,-0.80
2019-01-24T03:14:41.738Z,-0.70
2019-01-24T03:17:12.966Z,-0.70
2019-01-24T03:19:44.098Z,-0.70
2019-01-24T03:22:15.200Z,-0.80
2019-01-24T03:24:46.373Z,-0.80
2019-01-24T03:27:17.482Z,-0.80
2019-01-24T03:29:48.563Z,-0.90
2019-01-24T03:32:19.664Z,-0.90
2019-01-24T03:34:50.791Z,-0.90
2019-01-24T03:37:21.857Z,-0.90
2019-01-24T03:39:53.039Z,-0.90
2019-01-24T03:42:24.115Z,-0.80
2019-01-24T03:44:55.290Z,-0.80
2019-01-24T03:47:26.428Z,-0.70
2019-01-24T03:49:57.538Z,-0.80
2019-01-24T03:52:28.605Z,-0.80
2019-01-24T03:54:59.690Z,-0.80
2019-01-24T03:57:31.144Z,-0.80
2019-01-24T04:00:02.219Z,-0.90
2019-01-24T04:02:33.371Z,-0.90
2019-01-24T04:05:11.817Z,-0.90
2019-01-24T04:07:38.675Z,-0.90
2019-01-24T04:10:12.631Z,-0.90
2019-01-24T04:12:43.738Z,-0.90
2019-01-24T04:15:17.366Z,-0.90
2019-01-24T04:17:48.535Z,-0.90
2019-01-24T04:20:20.513Z,-0.80
2019-01-24T04:22:51.632Z,-0.80
2019-01-24T04:25:22.746Z,-0.80
2019-01-24T04:27:53.891Z,-0.80
2019-01-24T04:30:25.207Z,-0.90
2019-01-24T04:32:56.384Z,-0.90
2019-01-24T04:35:27.469Z,-0.90
2019-01-24T04:37:58.688Z,-0.90
2019-01-24T04:40:29.837Z,-1.00
2019-01-24T04:43:00.927Z,-0.90
2019-01-24T04:45:32.055Z,-0.90
2019-01-24T04:48:03.143Z,-0.90
2019-01-24T04:50:34.248Z,-0.90
2019-01-24T04:53:05.426Z,-1.00
2019-01-24T04:55:36.522Z,-1.10
2019-01-24T04:58:07.857Z,-1.10
2019-01-24T05:00:38.924Z,-1.10
2019-01-24T05:03:10.135Z,-1.20
2019-01-24T05:05:41.238Z,-1.10
2019-01-24T05:08:12.327Z,-1.10
2019-01-24T05:10:43.388Z,-1.00
2019-01-24T05:13:14.571Z,-1.10
2019-01-24T05:15:45.654Z,-1.10
2019-01-24T05:18:16.734Z,-1.20
2019-01-24T05:20:47.839Z,-1.20
2019-01-24T05:23:18.971Z,-1.10
2019-01-24T05:25:50.079Z,-1.10
2019-01-24T05:28:21.215Z,-1.10
2019-01-24T05:30:52.405Z,-1.20
2019-01-24T05:33:23.564Z,-1.20
2019-01-24T05:35:54.711Z,-1.20
2019-01-24T05:38:25.809Z,-1.20
2019-01-24T05:40:56.933Z,-1.20
2019-01-24T05:43:28.027Z,-1.20
2019-01-24T05:45:59.151Z,-1.30
2019-01-24T05:48:31.321Z,-1.30
2019-01-24T05:51:02.447Z,-1.30
2019-01-24T05:53:33.572Z,-1.30
2019-01-24T05:56:05.003Z,-1.20
2019-01-24T05:58:36.461Z,-1.20
2019-01-24T06:01:09.785Z,-1.10
2019-01-24T06:03:41.070Z,-1.10
2019-01-24T06:06:12.484Z,-1.10
2019-01-24T06:08:43.667Z,-1.20
2019-01-24T06:11:15.813Z,-1.20
2019-01-24T06:13:47.049Z,-1.20
2019-01-24T06:16:18.148Z,-1.20
2019-01-24T06:18:49.241Z,-1.20
2019-01-24T06:21:20.343Z,-1.20
2019-01-24T06:23:51.484Z,-1.20
2019-01-24T06:26:22.741Z,-1.20
2019-01-24T06:28:53.953Z,-1.20
2019-01-24T06:31:25.189Z,-1.20
2019-01-24T06:33:56.267Z,-1.40
2019-01-24T06:36:27.515Z,-1.40
2019-01-24T06:38:58.636Z,-1.30
2019-01-24T06:41:29.747Z,-1.20
2019-01-24T06:44:01.075Z,-1.20
2019-01-24T06:46:32.591Z,-1.20
2019-01-24T06:49:03.984Z,-1.20
2019-01-24T06:51:35.674Z,-1.20
2019-01-24T06:54:06.739Z,-1.20
2019-01-24T06:56:37.838Z,-1.20
2019-01-24T06:59:09.368Z,-1.30
2019-01-24T07:01:40.453Z,-1.20
2019-01-24T07:04:11.563Z,-1.30
2019-01-24T07:06:42.767Z,-1.20
2019-01-24T07:09:14.109Z,-1.30
2019-01-24T07:11:45.319Z,-1.20
2019-01-24T07:14:16.351Z,-1.20
2019-01-24T07:16:47.423Z,-1.20
2019-01-24T07:19:18.579Z,-1.20
2019-01-24T07:21:49.899Z,-1.20
2019-01-24T07:24:21.508Z,-1.30
2019-01-24T07:26:52.907Z,-1.30
2019-01-24T07:29:24.001Z,-1.30
2019-01-24T07:31:55.421Z,-1.30
2019-01-24T07:34:26.577Z,-1.20
2019-01-24T07:36:57.747Z,-1.20
2019-01-24T07:39:28.861Z,-1.20
2019-01-24T07:42:00.253Z,-1.20
2019-01-24T07:44:31.364Z,-1.20
2019-01-24T07:47:02.595Z,-1.20
2019-01-24T07:49:33.771Z,-1.20
2019-01-24T07:52:05.610Z,-1.10
2019-01-24T07:54:36.691Z,-1.10
2019-01-24T07:57:07.897Z,-1.20
2019-01-24T07:59:39.275Z,-1.10
2019-01-24T08:02:09.732Z,-1.30
2019-01-24T08:04:40.848Z,-1.30
2019-01-24T08:07:12.037Z,-1.30
2019-01-24T08:09:43.679Z,-1.20
2019-01-24T08:12:15.008Z,-1.10
2019-01-24T08:14:46.103Z,-1.10
2019-01-24T08:17:17.543Z,-1.00
2019-01-24T08:19:48.969Z,-0.90
2019-01-24T08:22:31.379Z,-1.00
2019-01-24T08:25:14.122Z,-1.00
2019-01-24T08:27:45.466Z,-1.00
2019-01-24T08:30:25.135Z,-0.80
2019-01-24T08:32:56.283Z,-0.80
2019-01-24T08:35:27.368Z,-0.80
2019-01-24T08:37:59.146Z,-0.80
2019-01-24T08:40:30.294Z,-0.70
2019-01-24T08:43:01.469Z,-0.80
2019-01-24T08:45:32.615Z,-0.80
2019-01-24T08:48:03.825Z,-0.70
2019-01-24T08:50:35.245Z,-0.60
2019-01-24T08:53:06.447Z,-0.50
2019-01-24T08:55:42.721Z,-0.40
2019-01-24T08:58:14.030Z,-0.40
2019-01-24T09:00:45.466Z,-0.40
2019-01-24T09:03:17.409Z,-0.50
2019-01-24T09:05:48.977Z,-0.60
2019-01-24T09:08:20.115Z,-0.60
2019-01-24T09:10:51.668Z,-0.60
2019-01-24T09:13:22.853Z,-0.70
2019-01-24T09:15:54.135Z,-0.70
2019-01-24T09:18:30.015Z,-0.60
2019-01-24T09:21:01.357Z,-0.70
2019-01-24T09:23:32.455Z,-0.70
2019-01-24T09:26:03.592Z,-0.60
2019-01-24T09:28:34.741Z,-0.50
2019-01-24T09:31:05.941Z,-0.70
2019-01-24T09:33:37.447Z,-0.80
2019-01-24T09:36:08.639Z,-0.70
2019-01-24T09:38:39.751Z,-0.70
2019-01-24T09:41:10.951Z,-0.70
2019-01-24T09:43:42.081Z,-0.80
2019-01-24T09:46:13.667Z,-0.80
2019-01-24T09:48:44.722Z,-0.70
2019-01-24T09:51:15.927Z,-0.70
2019-01-24T09:53:47.083Z,-0.80
2019-01-24T09:56:18.179Z,-0.70
2019-01-24T09:58:49.271Z,-0.70
2019-01-24T10:01:20.693Z,-0.60
2019-01-24T10:03:51.995Z,-0.60
2019-01-24T10:06:23.091Z,-0.40
2019-01-24T10:08:54.175Z,-0.70
2019-01-24T10:11:25.567Z,-0.50
2019-01-24T10:13:57.017Z,-0.50
2019-01-24T10:16:28.126Z,-0.40
2019-01-24T10:18:59.284Z,-0.70
2019-01-24T10:21:30.652Z,-0.50
2019-01-24T10:24:02.051Z,-0.40
2019-01-24T10:26:34.447Z,-0.40
2019-01-24T10:29:05.843Z,-0.40
2019-01-24T10:31:37.051Z,-0.30
2019-01-24T10:34:08.362Z,-0.30
2019-01-24T10:36:43.151Z,-0.30
2019-01-24T10:39:12.484Z,-0.10
2019-01-24T10:41:43.670Z,-0.30
2019-01-24T10:44:14.897Z,-0.30
2019-01-24T10:46:46.033Z,-0.30
2019-01-24T10:49:17.143Z,-0.30
2019-01-24T10:51:48.328Z,-0.20
2019-01-24T10:54:19.816Z,-0.10
2019-01-24T10:56:50.903Z,0.20
2019-01-24T10:59:22.033Z,0.10
2019-01-24T11:01:53.404Z,0.00
2019-01-24T11:04:24.482Z,0.10
2019-01-24T11:06:55.781Z,0.20
2019-01-24T11:09:26.915Z,0.10
2019-01-24T11:11:58.167Z,0.20
2019-01-24T11:14:29.603Z,0.10
2019-01-24T11:17:00.696Z,0.10
2019-01-24T11:19:31.851Z,0.20
2019-01-24T11:22:02.971Z,0.20
2019-01-24T11:24:34.055Z,0.20
2019-01-24T11:27:05.383Z,0.10
2019-01-24T11:29:36.931Z,-0.10
2019-01-24T11:32:08.526Z,-0.20
2019-01-24T11:34:40.007Z,-0.10
2019-01-24T11:37:11.145Z,-0.10
2019-01-24T11:39:42.309Z,-0.20
2019-01-24T11:42:13.445Z,-0.30
2019-01-24T11:44:45.035Z,-0.20
2019-01-24T11:47:16.161Z,-0.10
2019-01-24T11:49:47.511Z,-0.20
2019-01-24T11:52:18.680Z,-0.30
2019-01-24T11:54:49.905Z,-0.20
2019-01-24T11:57:21.085Z,-0.10
2019-01-24T11:59:52.171Z,-0.10
2019-01-24T12:02:23.641Z,-0.10
2019-01-24T12:04:54.735Z,-0.10
2019-01-24T12:07:26.028Z,-0.10
2019-01-24T12:10:00.540Z,-0.20
2019-01-24T12:12:31.802Z,-0.30
2019-01-24T12:15:03.165Z,-0.30
2019-01-24T12:17:34.627Z,-0.20
2019-01-24T12:20:08.299Z,-0.30
2019-01-24T12:22:39.712Z,-0.30
2019-01-24T12:25:11.409Z,-0.30
2019-01-24T12:27:42.871Z,-0.30
2019-01-24T12:30:29.368Z,-0.30
2019-01-24T12:33:01.127Z,-0.40
2019-01-24T12:35:32.226Z,-0.30
2019-01-24T12:38:03.330Z,-0.50
2019-01-24T12:40:34.419Z,-0.40
2019-01-24T12:43:05.940Z,-0.40
2019-01-24T12:45:38.100Z,-0.40
2019-01-24T12:48:09.525Z,-0.40
2019-01-24T12:50:40.600Z,-0.40
2019-01-24T12:53:11.786Z,-0.30
2019-01-24T12:55:42.923Z,-0.30
2019-01-24T12:58:14.117Z,-0.20
2019-01-24T13:00:45.617Z,-0.20
2019-01-24T13:03:16.905Z,-0.10
2019-01-24T13:05:48.401Z,0.00
2019-01-24T13:08:19.663Z,-0.10
2019-01-24T13:10:50.797Z,0.00
2019-01-24T13:13:21.875Z,-0.10
2019-01-24T13:15:53.100Z,-0.10
2019-01-24T13:18:24.243Z,-0.10
2019-01-24T13:20:55.387Z,0.00
2019-01-24T13:23:26.553Z,-0.10
2019-01-24T13:25:57.689Z,-0.20
2019-01-24T13:28:28.889Z,-0.40
2019-01-24T13:31:00.523Z,-0.30
2019-01-24T13:33:31.766Z,-0.30
2019-01-24T13:36:03.407Z,-0.30
2019-01-24T13:38:34.811Z,-0.40
2019-01-24T13:41:06.075Z,-0.60
2019-01-24T13:43:37.297Z,-0.70
2019-01-24T13:46:08.671Z,-0.70
2019-01-24T13:48:39.848Z,-0.50
2019-01-24T13:51:11.106Z,-0.50
2019-01-24T13:53:42.299Z,-0.50
2019-01-24T13:56:13.571Z,-0.50
2019-01-24T13:58:44.780Z,-0.50
2019-01-24T14:01:15.881Z,-0.40
2019-01-24T14:03:52.260Z,-0.40
2019-01-24T14:06:23.657Z,-0.40
2019-01-24T14:08:55.077Z,-0.40
2019-01-24T14:11:26.383Z,-0.50
2019-01-24T14:13:57.684Z,-0.30
2019-01-24T14:16:28.937Z,-0.40
2019-01-24T14:19:00.121Z,-0.30
2019-01-24T14:21:31.413Z,-0.30
2019-01-24T14:24:02.613Z,-0.40
2019-01-24T14:26:34.087Z,-0.40
2019-01-24T14:29:05.305Z,-0.30
2019-01-24T14:31:36.601Z,-0.40
2019-01-24T14:34:07.993Z,-0.40
2019-01-24T14:36:39.534Z,-0.40
2019-01-24T14:39:11.403Z,-0.20
2019-01-24T14:41:42.959Z,-0.10
2019-01-24T14:44:14.311Z,-0.30
2019-01-24T14:46:46.139Z,-0.30
2019-01-24T14:49:36.266Z,-0.30
2019-01-24T14:52:07.984Z,-0.30
2019-01-24T14:54:39.432Z,-0.30
2019-01-24T14:57:10.785Z,-0.30
2019-01-24T14:59:41.955Z,-0.30
2019-01-24T15:02:13.089Z,-0.30
2019-01-24T15:04:44.432Z,-0.40
2019-01-24T15:07:15.733Z,-0.40
2019-01-24T15:09:47.069Z,-0.40
2019-01-24T15:12:18.173Z,-0.40
2019-01-24T15:14:49.413Z,-0.40
2019-01-24T15:17:41.037Z,-0.50
2019-01-24T15:20:12.663Z,-0.50
2019-01-24T15:22:44.114Z,-0.50
2019-01-24T15:25:15.549Z,-0.40
2019-01-24T15:27:47.047Z,-0.50
2019-01-24T15:30:21.128Z,-0.40
2019-01-24T15:32:53.490Z,-0.50
2019-01-24T15:35:24.699Z,-0.50
2019-01-24T15:37:55.959Z,-0.40
2019-01-24T15:40:29.473Z,-0.40
2019-01-24T15:43:00.932Z,-0.60
2019-01-24T15:45:32.237Z,-0.60
2019-01-24T15:48:03.461Z,-0.50
2019-01-24T15:50:34.684Z,-0.50
2019-01-24T15:53:06.191Z,-0.50
2019-01-24T15:55:37.423Z,-0.70
2019-01-24T15:58:08.512Z,-0.80
2019-01-24T16:00:39.730Z,-0.80
2019-01-24T16:03:11.816Z,-0.80
2019-01-24T16:05:43.366Z,-0.80
2019-01-24T16:08:14.537Z,-0.80
2019-01-24T16:10:45.705Z,-0.70
2019-01-24T16:13:16.779Z,-0.70
2019-01-24T16:15:47.995Z,-0.70
2019-01-24T16:18:19.085Z,-0.80
2019-01-24T16:20:50.311Z,-0.80
2019-01-24T16:23:21.454Z,-0.90
2019-01-24T16:25:52.676Z,-0.90
2019-01-24T16:28:24.788Z,-0.90
2019-01-24T16:30:56.714Z,-0.90
2019-01-24T16:33:28.217Z,-0.80
2019-01-24T16:35:59.442Z,-0.70
2019-01-24T16:38:30.626Z,-0.80
2019-01-24T16:41:01.818Z,-0.90
2019-01-24T16:43:32.923Z,-0.90
2019-01-24T16:46:04.249Z,-0.90
2019-01-24T16:48:35.417Z,-0.90
2019-01-24T16:51:06.583Z,-1.00
2019-01-24T16:53:37.766Z,-1.10
2019-01-24T16:56:08.950Z,-1.10
2019-01-24T16:58:40.159Z,-1.00
2019-01-24T17:01:17.817Z,-1.10
2019-01-24T17:03:49.055Z,-1.10
2019-01-24T17:06:20.557Z,-1.10
2019-01-24T17:08:52.819Z,-1.10
2019-01-24T17:11:24.154Z,-1.10
2019-01-24T17:13:55.319Z,-1.00
2019-01-24T17:16:26.462Z,-1.10
2019-01-24T17:18:57.645Z,-1.00
2019-01-24T17:21:28.833Z,-1.00
2019-01-24T17:24:00.125Z,-1.00
2019-01-24T17:26:31.308Z,-1.00
2019-01-24T17:29:02.534Z,-1.00
2019-01-24T17:31:35.051Z,-1.10
2019-01-24T17:34:06.336Z,-1.10
2019-01-24T17:36:42.617Z,-1.10
2019-01-24T17:39:14.177Z,-1.10
2019-01-24T17:41:45.508Z,-1.20
2019-01-24T17:44:16.584Z,-1.00
2019-01-24T17:46:47.751Z,-1.20
2019-01-24T17:49:19.241Z,-1.20
2019-01-24T17:51:50.403Z,-1.20
2019-01-24T17:54:21.630Z,-1.20
2019-01-24T17:56:52.897Z,-1.20
2019-01-24T17:59:24.159Z,-1.30
2019-01-24T18:01:55.389Z,-1.30
2019-01-24T18:04:26.667Z,-1.20
2019-01-24T18:06:58.012Z,-1.20
2019-01-24T18:09:29.272Z,-1.10
2019-01-24T18:12:00.500Z,-1.20
2019-01-24T18:14:31.763Z,-1.20
2019-01-24T18:17:03.015Z,-1.20
2019-01-24T18:19:34.106Z,-1.30
2019-01-24T18:22:24.287Z,-1.30
2019-01-24T18:24:57.092Z,-1.30
2019-01-24T18:27:28.502Z,-1.40
2019-01-24T18:29:59.661Z,-1.40
2019-01-24T18:32:43.040Z,-1.40
2019-01-24T18:35:14.201Z,-1.30
2019-01-24T18:37:45.340Z,-1.20
2019-01-24T18:40:18.602Z,-1.20
2019-01-24T18:42:51.309Z,-1.20
2019-01-24T18:45:28.761Z,-1.20
2019-01-24T18:47:59.937Z,-1.20
2019-01-24T18:50:31.796Z,-1.10
2019-01-24T18:53:02.945Z,-1.20
2019-01-24T18:55:34.065Z,-1.20
2019-01-24T18:58:05.713Z,-1.20
2019-01-24T19:00:43.109Z,-1.20
2019-01-24T19:03:15.385Z,-1.20
2019-01-24T19:05:46.831Z,-1.20
2019-01-24T19:08:18.387Z,-1.20
2019-01-24T19:10:49.545Z,-1.20
2019-01-24T19:13:20.983Z,-1.40
2019-01-24T19:15:52.249Z,-1.40
2019-01-24T19:18:23.499Z,-1.40
2019-01-24T19:20:54.771Z,-1.50
2019-01-24T19:23:25.914Z,-1.60
2019-01-24T19:25:57.140Z,-1.60
2019-01-24T19:28:28.266Z,-1.60
2019-01-24T19:30:59.403Z,-1.60
2019-01-24T19:33:30.723Z,-1.60
2019-01-24T19:36:01.903Z,-1.70
2019-01-24T19:38:33.192Z,-1.70
2019-01-24T19:41:04.304Z,-1.70
2019-01-24T19:43:35.455Z,-1.80
2019-01-24T19:46:06.652Z,-1.70
2019-01-24T19:48:37.789Z,-1.80
2019-01-24T19:51:08.911Z,-1.80
2019-01-24T19:53:40.283Z,-1.80
2019-01-24T19:56:11.519Z,-1.80
2019-01-24T19:58:42.704Z,-1.80
2019-01-24T20:01:13.884Z,-1.80
2019-01-24T20:03:45.129Z,-1.80
2019-01-24T20:06:16.285Z,-1.80
2019-01-24T20:08:47.679Z,-1.80
2019-01-24T20:11:18.912Z,-1.90
2019-01-24T20:13:49.995Z,-1.90
2019-01-24T20:16:21.155Z,-1.80
2019-01-24T20:18:52.538Z,-1.80
2019-01-24T20:21:24.587Z,-1.90
2019-01-24T20:23:55.781Z,-1.90
2019-01-24T20:26:26.986Z,-1.90
2019-01-24T20:28:58.090Z,-1.80
2019-01-24T20:31:29.275Z,-1.90
2019-01-24T20:34:01.592Z,-1.90
2019-01-24T20:36:32.743Z,-1.90
2019-01-24T20:39:07.497Z,-1.90
2019-01-24T20:41:38.985Z,-2.00
2019-01-24T20:44:10.136Z,-1.90
2019-01-24T20:46:41.251Z,-1.90
2019-01-24T20:49:12.480Z,-1.90
2019-01-24T20:51:43.681Z,-2.00
2019-01-24T20:54:15.183Z,-2.00
2019-01-24T20:56:46.313Z,-1.90
2019-01-24T20:59:17.471Z,-1.90
2019-01-24T21:01:48.685Z,-2.00
2019-01-24T21:04:19.875Z,-2.10
2019-01-24T21:06:51.107Z,-2.00
2019-01-24T21:09:22.443Z,-2.00
2019-01-24T21:11:53.561Z,-2.00
2019-01-24T21:14:24.729Z,-2.00
2019-01-24T21:16:55.851Z,-2.10
2019-01-24T21:19:26.942Z,-2.10
2019-01-24T21:21:58.115Z,-2.00
2019-01-24T21:24:29.193Z,-2.00
2019-01-24T21:27:00.443Z,-2.00
2019-01-24T21:29:31.499Z,-1.90
2019-01-24T21:32:02.587Z,-2.00
2019-01-24T21:34:33.679Z,-1.90
2019-01-24T21:37:04.863Z,-1.90
2019-01-24T21:39:36.075Z,-1.90
2019-01-24T21:42:07.219Z,-1.90
2019-01-24T21:44:38.419Z,-1.90
2019-01-24T21:47:09.672Z,-1.90
2019-01-24T21:49:40.764Z,-1.90
2019-01-24T21:52:11.839Z,-1.90
2019-01-24T21:54:43.073Z,-2.00
2019-01-24T21:57:14.272Z,-2.00
2019-01-24T21:59:45.411Z,-1.90
2019-01-24T22:02:16.489Z,-1.90
2019-01-24T22:04:47.595Z,-1.80
2019-01-24T22:07:18.761Z,-1.80
2019-01-24T22:09:49.928Z,-1.80
2019-01-24T22:12:21.072Z,-1.70
2019-01-24T22:14:52.199Z,-1.80
2019-01-24T22:17:23.271Z,-1.80
2019-01-24T22:19:54.429Z,-1.90
2019-01-24T22:22:25.479Z,-1.90
2019-01-24T22:24:56.608Z,-1.90
2019-01-24T22:27:27.775Z,-1.90
2019-01-24T22:29:58.863Z,-1.90
2019-01-24T22:32:29.952Z,-1.90
2019-01-24T22:35:01.063Z,-1.80
2019-01-24T22:37:32.189Z,-1.90
2019-01-24T22:40:03.389Z,-1.90
2019-01-24T22:42:34.520Z,-1.90
2019-01-24T22:45:08.580Z,-2.00
2019-01-24T22:47:39.739Z,-1.90
2019-01-24T22:50:12.935Z,-1.90
2019-01-24T22:52:44.056Z,-1.90
2019-01-24T22:55:15.136Z,-1.90
2019-01-24T22:57:46.287Z,-1.80
2019-01-24T23:00:52.425Z,-1.80
2019-01-24T23:03:31.019Z,-1.80
2019-01-24T23:06:02.155Z,-1.80
2019-01-24T23:08:33.277Z,-1.90
2019-01-24T23:11:05.103Z,-1.90
2019-01-24T23:13:36.211Z,-1.90
2019-01-24T23:16:07.349Z,-1.80
2019-01-24T23:18:38.459Z,-1.80
2019-01-24T23:21:09.667Z,-1.80
2019-01-24T23:23:40.765Z,-1.80
2019-01-24T23:26:11.907Z,-1.90
2019-01-24T23:28:43.081Z,-1.90
2019-01-24T23:31:14.139Z,-1.80
2019-01-24T23:33:45.222Z,-1.80
2019-01-24T23:36:16.340Z,-1.80
2019-01-24T23:38:47.415Z,-1.80
2019-01-24T23:41:18.524Z,-1.80
2019-01-24T23:43:49.583Z,-1.80
2019-01-24T23:46:20.749Z,-1.80
2019-01-24T23:48:51.811Z,-1.80
2019-01-24T23:51:22.922Z,-1.80
2019-01-24T23:53:54.190Z,-1.90
2019-01-24T23:56:25.351Z,-1.90
2019-01-24T23:58:57.483Z,-2.00
